aviador You're here:

LKPR Decoded Metar

PRAGUE in CZECH REPUBLIC
Report Time2018-07-21 08:00:00
UTC Time2018-07-21 08:11:33
Flight Rules vfr VFR
WindVRB at 05 kt
Visibility9999 m
Phenomena:N/A
Clouds:N/A
Expected CloudBase > 4,400 ft AGL from Temp-Dew spread
CeilingNone
Temp23°C (ISA +10)
Dew Point12°C (50% RH)
AAT21.8°C
QNH1012 hPa
Density Alt2,628 ft
Elevation1,198 ft
Report Wrong Elevation
Raw Report
LKPR 210800Z VRB05KT CAVOK 23/12 Q1012 NOSIG=

Extra information for LKPR:More info

Metar Taf Metar & Taf Last 4 Metars F.Rules Stats Wind Profile Meteogram Temp Stats Airport Information Weather charts Add Link Nearby VenuesMetar ALERT Operation Metar Decoded Social comments